Ardmore, Missouri
Current Conditions -  °F | °C
As of 6:55 PM on Wednesday 17 Dec 2014 (Local Time) from KIRK Reporting Station
Broken Clouds Broken Clouds  
Wind Chill: -4°   Ceiling: 9000
Heat Index: -4°   Visibility: 10mi
Dew Point: -6°   Wind: 3mph
Humidity: 85%   Direction: 60°ENE
Pressure: 30.26"   Gusts: NA
Location:  39.6493°N, 92.4492°W
Report Text: KIRK 180055Z AUTO 06003KT 10SM BKN090 M04/M06 A3026 RMK AO2 SLP265 T10391061
Loading
Personal Weather Stations






























Interactive Weather Map New forecast layout! Learn more

10-Day Weather Forecast

Advertisements
Track Severe Weather on mobile